Time,TemperatureF,DewpointF,PressureIn,WindDirection,WindDirectionDegrees,WindSpeedMPH,WindSpeedGustMPH,Humidity,HourlyPrecipIn,Conditions,Clouds,dailyrainin,SolarRadiationWatts/m^2,SoftwareType,DateUTC
2013-01-09 00:00:00,35.9,27.8,30.03,NW,313,0.0,2.0,72,0.00,,---,0.00,0.00,VWS V14.01,2013-01-09 06:00:00,
2013-01-09 00:03:00,35.6,27.5,30.03,NW,313,1.0,1.0,72,0.00,,---,0.00,0.00,VWS V14.01,2013-01-09 06:03:00,
2013-01-09 00:05:00,35.6,27.5,30.03,NW,316,1.0,2.0,72,0.00,,---,0.00,0.00,VWS V14.01,2013-01-09 06:05:00,
2013-01-09 00:08:00,35.3,27.2,30.03,NW,316,0.0,2.0,72,0.00,,---,0.00,0.00,VWS V14.01,2013-01-09 06:08:00,
2013-01-09 00:10:00,35.2,27.1,30.03,NW,315,0.0,2.0,72,0.00,,---,0.00,0.00,VWS V14.01,2013-01-09 06:10:00,
2013-01-09 00:13:00,35.0,27.2,30.03,NW,316,0.0,0.0,73,0.00,,---,0.00,0.00,VWS V14.01,2013-01-09 06:13:00,
2013-01-09 00:15:00,35.0,27.2,30.03,NW,315,0.0,0.0,73,0.00,,---,0.00,0.00,VWS V14.01,2013-01-09 06:15:00,
2013-01-09 00:18:00,34.9,27.1,30.03,NW,312,0.0,0.0,73,0.00,,---,0.00,0.00,VWS V14.01,2013-01-09 06:18:00,
2013-01-09 00:20:00,34.7,26.9,30.03,NW,312,0.0,0.0,73,0.00,,---,0.00,0.00,VWS V14.01,2013-01-09 06:20:00,
2013-01-09 00:23:00,34.6,27.2,30.03,NW,312,0.0,0.0,74,0.00,,---,0.00,0.00,VWS V14.01,2013-01-09 06:23:00,
2013-01-09 00:25:00,34.6,27.2,30.03,NW,315,0.0,0.0,74,0.00,,---,0.00,0.00,VWS V14.01,2013-01-09 06:25:00,
2013-01-09 00:28:00,34.4,27.0,30.03,NW,316,0.0,0.0,74,0.00,,---,0.00,0.00,VWS V14.01,2013-01-09 06:28:00,
2013-01-09 00:30:00,34.4,27.0,30.03,NW,315,0.0,0.0,74,0.00,,---,0.00,0.00,VWS V14.01,2013-01-09 06:30:00,
2013-01-09 00:33:00,34.0,26.6,30.03,NW,320,4.0,4.0,74,0.00,,---,0.00,0.00,VWS V14.01,2013-01-09 06:33:00,
2013-01-09 00:35:00,34.0,26.6,30.03,NW,315,3.0,4.0,74,0.00,,---,0.00,0.00,VWS V14.01,2013-01-09 06:35:00,
2013-01-09 00:39:00,34.3,27.2,30.03,North,0,5.0,5.0,75,0.00,,---,0.00,0.00,VWS V14.01,2013-01-09 06:39:00,
2013-01-09 00:40:00,34.3,27.2,30.03,NNW,343,5.0,5.0,75,0.00,,---,0.00,0.00,VWS V14.01,2013-01-09 06:40:00,
2013-01-09 00:44:00,34.3,27.2,30.04,NW,308,5.0,5.0,75,0.00,,---,0.00,0.00,VWS V14.01,2013-01-09 06:44:00,
2013-01-09 00:45:00,34.3,27.2,30.04,NW,309,4.0,5.0,75,0.00,,---,0.00,0.00,VWS V14.01,2013-01-09 06:45:00,
2013-01-09 00:49:00,33.8,26.7,30.04,NW,313,3.0,5.0,75,0.00,,---,0.00,0.00,VWS V14.01,2013-01-09 06:49:00,
2013-01-09 00:50:00,33.8,26.7,30.04,NW,308,3.0,5.0,75,0.00,,---,0.00,0.00,VWS V14.01,2013-01-09 06:50:00,
2013-01-09 00:54:00,33.5,26.4,30.04,NW,313,3.0,3.0,75,0.00,,---,0.00,0.00,VWS V14.01,2013-01-09 06:54:00,
2013-01-09 00:55:00,33.5,26.4,30.04,NW,315,3.0,3.0,75,0.00,,---,0.00,0.00,VWS V14.01,2013-01-09 06:55:00,
2013-01-09 00:59:00,33.2,26.1,30.05,WNW,294,5.0,5.0,75,0.00,,---,0.00,0.00,VWS V14.01,2013-01-09 06:59:00,
2013-01-09 01:00:00,33.1,26.0,30.05,WNW,294,5.0,5.0,75,0.00,,---,0.00,0.00,VWS V14.01,2013-01-09 07:00:00,
2013-01-09 01:04:00,32.2,25.5,30.05,WNW,284,5.0,6.0,76,0.00,,---,0.00,0.00,VWS V14.01,2013-01-09 07:04:00,
2013-01-09 01:05:00,32.2,25.5,30.05,WNW,284,5.0,6.0,76,0.00,,---,0.00,0.00,VWS V14.01,2013-01-09 07:05:00,
2013-01-09 01:09:00,32.4,26.3,30.05,West,272,5.0,6.0,78,0.00,,---,0.00,0.00,VWS V14.01,2013-01-09 07:09:00,
2013-01-09 01:10:00,32.4,26.3,30.05,West,272,5.0,6.0,78,0.00,,---,0.00,0.00,VWS V14.01,2013-01-09 07:10:00,
2013-01-09 01:14:00,32.7,26.9,30.05,West,270,5.0,6.0,79,0.00,,---,0.00,0.00,VWS V14.01,2013-01-09 07:14:00,
2013-01-09 01:15:00,32.7,26.9,30.05,West,270,5.0,6.0,79,0.00,,---,0.00,0.00,VWS V14.01,2013-01-09 07:15:00,
2013-01-09 01:19:00,33.2,27.4,30.05,West,271,5.0,5.0,79,0.00,,---,0.00,0.00,VWS V14.01,2013-01-09 07:19:00,
2013-01-09 01:20:00,33.2,27.4,30.05,West,267,5.0,5.0,79,0.00,,---,0.00,0.00,VWS V14.01,2013-01-09 07:20:00,
2013-01-09 01:24:00,33.4,27.3,30.05,West,271,5.0,5.0,78,0.00,,---,0.00,0.00,VWS V14.01,2013-01-09 07:24:00,
2013-01-09 01:25:00,33.4,27.3,30.05,West,271,5.0,6.0,78,0.00,,---,0.00,0.00,VWS V14.01,2013-01-09 07:25:00,
2013-01-09 01:29:00,32.7,26.3,30.06,West,263,6.0,6.0,77,0.00,,---,0.00,0.00,VWS V14.01,2013-01-09 07:29:00,
2013-01-09 01:30:00,32.7,26.3,30.06,West,268,6.0,6.0,77,0.00,,---,0.00,0.00,VWS V14.01,2013-01-09 07:30:00,
2013-01-09 01:34:00,32.2,26.1,30.06,West,268,5.0,5.0,78,0.00,,---,0.00,0.00,VWS V14.01,2013-01-09 07:34:00,
2013-01-09 01:35:00,32.2,25.8,30.06,West,268,5.0,6.0,77,0.00,,---,0.00,0.00,VWS V14.01,2013-01-09 07:35:00,
2013-01-09 01:39:00,32.1,26.0,30.06,West,270,5.0,5.0,78,0.00,,---,0.00,0.00,VWS V14.01,2013-01-09 07:39:00,
2013-01-09 01:40:00,32.1,26.0,30.06,West,265,5.0,6.0,78,0.00,,---,0.00,0.00,VWS V14.01,2013-01-09 07:40:00,
2013-01-09 01:44:00,32.1,26.3,30.07,West,267,4.0,5.0,79,0.00,,---,0.00,0.00,VWS V14.01,2013-01-09 07:44:00,
2013-01-09 01:45:00,32.1,26.3,30.07,West,270,5.0,6.0,79,0.00,,---,0.00,0.00,VWS V14.01,2013-01-09 07:45:00,
2013-01-09 01:50:00,32.9,27.1,30.07,West,270,6.0,6.0,79,0.00,,---,0.00,0.00,VWS V14.01,2013-01-09 07:50:00,
2013-01-09 01:55:00,32.9,27.1,30.07,West,271,5.0,5.0,79,0.00,,---,0.00,0.00,VWS V14.01,2013-01-09 07:55:00,
2013-01-09 02:00:00,32.8,27.0,30.07,West,271,6.0,6.0,79,0.00,,---,0.00,0.00,VWS V14.01,2013-01-09 08:00:00,
2013-01-09 02:05:00,32.9,27.1,30.07,West,268,5.0,6.0,79,0.00,,---,0.00,0.00,VWS V14.01,2013-01-09 08:05:00,
2013-01-09 02:10:00,32.9,26.8,30.07,West,270,6.0,6.0,78,0.00,,---,0.00,0.00,VWS V14.01,2013-01-09 08:10:00,
2013-01-09 02:15:00,32.7,26.6,30.08,West,264,6.0,6.0,78,0.00,,---,0.00,0.00,VWS V14.01,2013-01-09 08:15:00,
2013-01-09 02:20:00,32.4,26.3,30.08,SW,230,5.0,6.0,78,0.00,,---,0.00,0.00,VWS V14.01,2013-01-09 08:20:00,
2013-01-09 02:25:00,32.2,26.4,30.08,SW,230,6.0,7.0,79,0.00,,---,0.00,0.00,VWS V14.01,2013-01-09 08:25:00,
2013-01-09 02:30:00,31.3,25.2,30.08,SW,229,7.0,7.0,78,0.00,,---,0.00,0.00,VWS V14.01,2013-01-09 08:30:00,
2013-01-09 02:35:00,30.7,25.0,30.08,SW,234,6.0,7.0,79,0.00,,---,0.00,0.00,VWS V14.01,2013-01-09 08:35:00,
2013-01-09 02:40:00,30.7,25.6,30.08,WSW,248,7.0,7.0,81,0.00,,---,0.00,0.00,VWS V14.01,2013-01-09 08:40:00,
2013-01-09 02:45:00,30.7,25.6,30.08,WSW,251,6.0,6.0,81,0.00,,---,0.00,0.00,VWS V14.01,2013-01-09 08:45:00,
2013-01-09 02:50:00,30.3,25.2,30.08,WSW,247,6.0,7.0,81,0.00,,---,0.00,0.00,VWS V14.01,2013-01-09 08:50:00,
2013-01-09 02:55:00,29.8,24.7,30.08,WSW,246,6.0,7.0,81,0.00,,---,0.00,0.00,VWS V14.01,2013-01-09 08:55:00,
2013-01-09 02:56:00,29.7,24.6,30.08,WSW,246,6.0,7.0,81,0.00,,---,0.00,0.00,VWS V14.01,2013-01-09 08:56:00,
2013-01-09 03:00:00,29.4,24.3,30.09,WSW,246,6.0,7.0,81,0.00,,---,0.00,0.00,VWS V14.01,2013-01-09 09:00:00,
2013-01-09 03:01:00,29.3,24.5,30.09,WSW,243,6.0,7.0,82,0.00,,---,0.00,0.00,VWS V14.01,2013-01-09 09:01:00,
2013-01-09 03:05:00,29.3,24.5,30.09,WSW,251,6.0,7.0,82,0.00,,---,0.00,0.00,VWS V14.01,2013-01-09 09:05:00,
2013-01-09 03:06:00,29.4,24.9,30.09,WSW,250,5.0,7.0,83,0.00,,---,0.00,0.00,VWS V14.01,2013-01-09 09:06:00,
2013-01-09 03:10:00,29.5,25.0,30.09,WSW,247,5.0,7.0,83,0.00,,---,0.00,0.00,VWS V14.01,2013-01-09 09:10:00,
2013-01-09 03:11:00,29.5,25.0,30.09,WSW,248,5.0,6.0,83,0.00,,---,0.00,0.00,VWS V14.01,2013-01-09 09:11:00,
2013-01-09 03:15:00,29.4,24.9,30.09,WSW,248,6.0,6.0,83,0.00,,---,0.00,0.00,VWS V14.01,2013-01-09 09:15:00,
2013-01-09 03:16:00,29.4,24.9,30.09,WSW,248,6.0,6.0,83,0.00,,---,0.00,0.00,VWS V14.01,2013-01-09 09:16:00,
2013-01-09 03:20:00,29.3,24.8,30.09,WSW,251,6.0,6.0,83,0.00,,---,0.00,0.00,VWS V14.01,2013-01-09 09:20:00,
2013-01-09 03:21:00,29.1,24.6,30.09,WSW,248,6.0,6.0,83,0.00,,---,0.00,0.00,VWS V14.01,2013-01-09 09:21:00,
2013-01-09 03:25:00,29.0,24.5,30.09,WSW,248,6.0,7.0,83,0.00,,---,0.00,0.00,VWS V14.01,2013-01-09 09:25:00,
2013-01-09 03:26:00,28.8,24.3,30.09,WSW,248,6.0,6.0,83,0.00,,---,0.00,0.00,VWS V14.01,2013-01-09 09:26:00,
2013-01-09 03:30:00,28.8,24.6,30.09,WSW,248,6.0,6.0,84,0.00,,---,0.00,0.00,VWS V14.01,2013-01-09 09:30:00,
2013-01-09 03:31:00,28.8,24.6,30.09,WSW,244,6.0,6.0,84,0.00,,---,0.00,0.00,VWS V14.01,2013-01-09 09:31:00,
2013-01-09 03:35:00,28.8,24.6,30.09,WSW,244,5.0,7.0,84,0.00,,---,0.00,0.00,VWS V14.01,2013-01-09 09:35:00,
2013-01-09 03:36:00,29.0,24.8,30.09,WSW,247,6.0,7.0,84,0.00,,---,0.00,0.00,VWS V14.01,2013-01-09 09:36:00,
2013-01-09 03:40:00,28.8,24.6,30.09,WSW,244,4.0,7.0,84,0.00,,---,0.00,0.00,VWS V14.01,2013-01-09 09:40:00,
2013-01-09 03:41:00,28.8,24.6,30.09,WSW,246,2.0,5.0,84,0.00,,---,0.00,0.00,VWS V14.01,2013-01-09 09:41:00,
2013-01-09 03:45:00,28.7,24.5,30.11,WSW,240,2.0,5.0,84,0.00,,---,0.00,0.00,VWS V14.01,2013-01-09 09:45:00,
2013-01-09 03:46:00,28.7,24.5,30.11,WSW,239,5.0,5.0,84,0.00,,---,0.00,0.00,VWS V14.01,2013-01-09 09:46:00,
2013-01-09 03:50:00,28.7,24.8,30.11,WSW,237,5.0,6.0,85,0.00,,---,0.00,0.00,VWS V14.01,2013-01-09 09:50:00,
2013-01-09 03:51:00,28.7,24.8,30.11,WSW,237,5.0,6.0,85,0.00,,---,0.00,0.00,VWS V14.01,2013-01-09 09:51:00,
2013-01-09 03:55:00,28.5,24.3,30.11,WSW,239,4.0,6.0,84,0.00,,---,0.00,0.00,VWS V14.01,2013-01-09 09:55:00,
2013-01-09 03:56:00,28.4,24.5,30.11,WSW,241,6.0,6.0,85,0.00,,---,0.00,0.00,VWS V14.01,2013-01-09 09:56:00,
2013-01-09 04:00:00,28.4,24.5,30.11,WSW,247,6.0,6.0,85,0.00,,---,0.00,0.00,VWS V14.01,2013-01-09 10:00:00,
2013-01-09 04:02:00,28.2,24.3,30.11,WSW,246,6.0,6.0,85,0.00,,---,0.00,0.00,VWS V14.01,2013-01-09 10:02:00,
2013-01-09 04:05:00,28.2,24.3,30.11,WSW,244,6.0,6.0,85,0.00,,---,0.00,0.00,VWS V14.01,2013-01-09 10:05:00,
2013-01-09 04:07:00,28.1,24.2,30.11,WSW,244,6.0,7.0,85,0.00,,---,0.00,0.00,VWS V14.01,2013-01-09 10:07:00,
2013-01-09 04:10:00,27.9,24.0,30.11,WSW,244,5.0,7.0,85,0.00,,---,0.00,0.00,VWS V14.01,2013-01-09 10:10:00,
2013-01-09 04:12:00,27.8,23.9,30.11,WSW,237,6.0,7.0,85,0.00,,---,0.00,0.00,VWS V14.01,2013-01-09 10:12:00,
2013-01-09 04:15:00,27.8,23.9,30.12,WSW,241,6.0,7.0,85,0.00,,---,0.00,0.00,VWS V14.01,2013-01-09 10:15:00,
2013-01-09 04:17:00,27.8,24.2,30.12,WSW,247,6.0,6.0,86,0.00,,---,0.00,0.00,VWS V14.01,2013-01-09 10:17:00,
2013-01-09 04:20:00,27.9,24.3,30.12,WSW,247,6.0,6.0,86,0.00,,---,0.00,0.00,VWS V14.01,2013-01-09 10:20:00,
2013-01-09 04:22:00,27.8,24.2,30.12,WSW,244,5.0,6.0,86,0.00,,---,0.00,0.00,VWS V14.01,2013-01-09 10:22:00,
2013-01-09 04:25:00,27.8,24.2,30.12,WSW,247,4.0,6.0,86,0.00,,---,0.00,0.00,VWS V14.01,2013-01-09 10:25:00,
2013-01-09 04:27:00,27.8,24.2,30.12,WSW,243,5.0,5.0,86,0.00,,---,0.00,0.00,VWS V14.01,2013-01-09 10:27:00,
2013-01-09 04:30:00,27.9,24.3,30.13,WSW,244,5.0,5.0,86,0.00,,---,0.00,0.00,VWS V14.01,2013-01-09 10:30:00,
2013-01-09 04:32:00,27.9,24.3,30.13,WSW,246,6.0,6.0,86,0.00,,---,0.00,0.00,VWS V14.01,2013-01-09 10:32:00,
2013-01-09 04:35:00,28.1,24.5,30.13,WSW,243,4.0,6.0,86,0.00,,---,0.00,0.00,VWS V14.01,2013-01-09 10:35:00,
2013-01-09 04:37:00,28.1,24.5,30.13,SW,215,4.0,5.0,86,0.00,,---,0.00,0.00,VWS V14.01,2013-01-09 10:37:00,
2013-01-09 04:40:00,28.2,24.6,30.13,WSW,244,5.0,5.0,86,0.00,,---,0.00,0.00,VWS V14.01,2013-01-09 10:40:00,
2013-01-09 04:42:00,28.2,24.6,30.13,WSW,243,4.0,5.0,86,0.00,,---,0.00,0.00,VWS V14.01,2013-01-09 10:42:00,
2013-01-09 04:45:00,28.2,24.6,30.12,WSW,241,4.0,5.0,86,0.00,,---,0.00,0.00,VWS V14.01,2013-01-09 10:45:00,
2013-01-09 04:47:00,28.5,25.1,30.12,West,260,6.0,6.0,87,0.00,,---,0.00,0.00,VWS V14.01,2013-01-09 10:47:00,
2013-01-09 04:50:00,28.7,25.3,30.12,West,261,5.0,6.0,87,0.00,,---,0.00,0.00,VWS V14.01,2013-01-09 10:50:00,
2013-01-09 04:52:00,29.0,25.6,30.12,West,280,6.0,6.0,87,0.00,,---,0.00,0.00,VWS V14.01,2013-01-09 10:52:00,
2013-01-09 04:55:00,29.1,25.7,30.12,WNW,292,6.0,6.0,87,0.00,,---,0.00,0.00,VWS V14.01,2013-01-09 10:55:00,
2013-01-09 04:57:00,29.5,26.1,30.12,WNW,298,5.0,7.0,87,0.00,,---,0.00,0.00,VWS V14.01,2013-01-09 10:57:00,
2013-01-09 05:00:00,29.5,25.8,30.12,WNW,298,5.0,7.0,86,0.00,,---,0.00,0.00,VWS V14.01,2013-01-09 11:00:00,
2013-01-09 05:02:00,29.5,25.8,30.12,WNW,298,6.0,6.0,86,0.00,,---,0.00,0.00,VWS V14.01,2013-01-09 11:02:00,
2013-01-09 05:05:00,29.7,26.0,30.12,NW,306,5.0,6.0,86,0.00,,---,0.00,0.00,VWS V14.01,2013-01-09 11:05:00,
2013-01-09 05:07:00,30.0,26.3,30.12,North,0,5.0,6.0,86,0.00,,---,0.00,0.00,VWS V14.01,2013-01-09 11:07:00,
2013-01-09 05:10:00,30.1,26.4,30.12,NW,316,5.0,6.0,86,0.00,,---,0.00,0.00,VWS V14.01,2013-01-09 11:10:00,
2013-01-09 05:13:00,30.3,26.6,30.12,North,0,6.0,6.0,86,0.00,,---,0.00,0.00,VWS V14.01,2013-01-09 11:13:00,
2013-01-09 05:15:00,30.3,26.6,30.13,WNW,288,6.0,6.0,86,0.00,,---,0.00,0.00,VWS V14.01,2013-01-09 11:15:00,
2013-01-09 05:18:00,30.4,26.4,30.13,NNW,347,7.0,7.0,85,0.00,,---,0.00,0.00,VWS V14.01,2013-01-09 11:18:00,
2013-01-09 05:20:00,30.4,26.4,30.13,NW,323,7.0,7.0,85,0.00,,---,0.00,0.00,VWS V14.01,2013-01-09 11:20:00,
2013-01-09 05:23:00,30.7,26.7,30.13,NW,319,7.0,7.0,85,0.00,,---,0.00,0.00,VWS V14.01,2013-01-09 11:23:00,
2013-01-09 05:25:00,30.7,26.7,30.13,NW,326,6.0,7.0,85,0.00,,---,0.00,0.00,VWS V14.01,2013-01-09 11:25:00,
2013-01-09 05:28:00,30.9,26.9,30.13,NNW,333,7.0,7.0,85,0.00,,---,0.00,0.00,VWS V14.01,2013-01-09 11:28:00,
2013-01-09 05:30:00,30.9,26.9,30.12,NNW,335,7.0,7.0,85,0.00,,---,0.00,0.00,VWS V14.01,2013-01-09 11:30:00,
2013-01-09 05:33:00,31.0,26.7,30.12,NNW,330,6.0,7.0,84,0.00,,---,0.00,0.00,VWS V14.01,2013-01-09 11:33:00,
2013-01-09 05:35:00,31.0,26.7,30.12,NW,325,7.0,7.0,84,0.00,,---,0.00,0.00,VWS V14.01,2013-01-09 11:35:00,
2013-01-09 05:38:00,31.2,26.9,30.12,NNW,328,6.0,7.0,84,0.00,,---,0.00,0.00,VWS V14.01,2013-01-09 11:38:00,
2013-01-09 05:40:00,31.2,26.9,30.12,NW,323,5.0,7.0,84,0.00,,---,0.00,0.00,VWS V14.01,2013-01-09 11:40:00,
2013-01-09 05:43:00,31.0,26.7,30.12,NW,322,6.0,6.0,84,0.00,,---,0.00,0.00,VWS V14.01,2013-01-09 11:43:00,
2013-01-09 05:45:00,31.0,26.7,30.13,NW,323,5.0,6.0,84,0.00,,---,0.00,0.00,VWS V14.01,2013-01-09 11:45:00,
2013-01-09 05:48:00,31.0,26.5,30.13,NW,322,5.0,6.0,83,0.00,,---,0.00,0.00,VWS V14.01,2013-01-09 11:48:00,
2013-01-09 05:50:00,31.0,26.5,30.13,NW,322,5.0,6.0,83,0.00,,---,0.00,0.00,VWS V14.01,2013-01-09 11:50:00,
2013-01-09 05:53:00,30.9,26.4,30.13,NW,326,4.0,5.0,83,0.00,,---,0.00,0.00,VWS V14.01,2013-01-09 11:53:00,
2013-01-09 05:55:00,30.9,26.4,30.13,NW,326,5.0,5.0,83,0.00,,---,0.00,0.00,VWS V14.01,2013-01-09 11:55:00,
2013-01-09 05:58:00,30.7,26.2,30.14,NNW,328,2.0,5.0,83,0.00,,---,0.00,0.00,VWS V14.01,2013-01-09 11:58:00,
2013-01-09 06:00:00,30.7,26.2,30.14,NNW,328,2.0,5.0,83,0.00,,---,0.00,0.00,VWS V14.01,2013-01-09 12:00:00,
2013-01-09 06:03:00,30.7,26.2,30.14,NW,326,0.0,2.0,83,0.00,,---,0.00,0.00,VWS V14.01,2013-01-09 12:03:00,
2013-01-09 06:05:00,30.7,26.2,30.14,NW,322,0.0,2.0,83,0.00,,---,0.00,0.00,VWS V14.01,2013-01-09 12:05:00,
2013-01-09 06:09:00,30.6,26.1,30.14,NW,323,0.0,0.0,83,0.00,,---,0.00,0.00,VWS V14.01,2013-01-09 12:09:00,
2013-01-09 06:10:00,30.6,26.1,30.14,NW,323,0.0,0.0,83,0.00,,---,0.00,0.00,VWS V14.01,2013-01-09 12:10:00,
2013-01-09 06:14:00,30.3,25.5,30.16,NW,323,0.0,0.0,82,0.00,,---,0.00,0.00,VWS V14.01,2013-01-09 12:14:00,
2013-01-09 06:15:00,30.3,25.5,30.16,NW,326,0.0,0.0,82,0.00,,---,0.00,0.00,VWS V14.01,2013-01-09 12:15:00,
2013-01-09 06:19:00,30.1,25.6,30.16,NW,322,0.0,0.0,83,0.00,,---,0.00,0.00,VWS V14.01,2013-01-09 12:19:00,
2013-01-09 06:20:00,30.1,25.6,30.16,NNW,328,0.0,0.0,83,0.00,,---,0.00,0.00,VWS V14.01,2013-01-09 12:20:00,
2013-01-09 06:24:00,30.1,25.6,30.16,NW,322,0.0,0.0,83,0.00,,---,0.00,0.00,VWS V14.01,2013-01-09 12:24:00,
2013-01-09 06:25:00,30.1,25.6,30.16,NW,323,0.0,0.0,83,0.00,,---,0.00,0.00,VWS V14.01,2013-01-09 12:25:00,
2013-01-09 06:29:00,29.8,25.3,30.16,NW,323,0.0,0.0,83,0.00,,---,0.00,0.00,VWS V14.01,2013-01-09 12:29:00,
2013-01-09 06:30:00,29.8,25.3,30.16,NW,326,0.0,0.0,83,0.00,,---,0.00,0.00,VWS V14.01,2013-01-09 12:30:00,
2013-01-09 06:34:00,29.7,25.2,30.16,NW,325,0.0,0.0,83,0.00,,---,0.00,0.00,VWS V14.01,2013-01-09 12:34:00,
2013-01-09 06:35:00,29.7,25.2,30.16,NW,325,0.0,0.0,83,0.00,,---,0.00,0.00,VWS V14.01,2013-01-09 12:35:00,
2013-01-09 06:39:00,29.4,24.9,30.16,NW,323,0.0,0.0,83,0.00,,---,0.00,0.00,VWS V14.01,2013-01-09 12:39:00,
2013-01-09 06:40:00,29.4,24.9,30.16,NW,323,0.0,0.0,83,0.00,,---,0.00,0.00,VWS V14.01,2013-01-09 12:40:00,
2013-01-09 06:44:00,29.3,24.8,30.17,NW,326,0.0,0.0,83,0.00,,---,0.00,0.00,VWS V14.01,2013-01-09 12:44:00,
2013-01-09 06:45:00,29.3,24.8,30.17,NW,326,0.0,0.0,83,0.00,,---,0.00,0.00,VWS V14.01,2013-01-09 12:45:00,
2013-01-09 06:49:00,29.1,24.9,30.17,NW,323,0.0,0.0,84,0.00,,---,0.00,0.00,VWS V14.01,2013-01-09 12:49:00,
2013-01-09 06:50:00,29.1,24.9,30.17,NW,323,0.0,0.0,84,0.00,,---,0.00,0.00,VWS V14.01,2013-01-09 12:50:00,
2013-01-09 06:54:00,29.4,25.2,30.17,NW,323,0.0,0.0,84,0.00,,---,0.00,0.00,VWS V14.01,2013-01-09 12:54:00,
2013-01-09 06:55:00,29.4,25.2,30.17,NW,325,0.0,0.0,84,0.00,,---,0.00,0.00,VWS V14.01,2013-01-09 12:55:00,
2013-01-09 06:59:00,29.4,25.2,30.18,NW,320,0.0,0.0,84,0.00,,---,0.00,0.00,VWS V14.01,2013-01-09 12:59:00,
2013-01-09 07:00:00,29.4,25.2,30.18,NW,323,0.0,0.0,84,0.00,,---,0.00,0.00,VWS V14.01,2013-01-09 13:00:00,
2013-01-09 07:04:00,29.5,25.6,30.18,NW,322,2.0,2.0,85,0.00,,---,0.00,0.00,VWS V14.01,2013-01-09 13:04:00,
2013-01-09 07:05:00,29.5,25.6,30.18,NW,325,0.0,0.0,85,0.00,,---,0.00,0.00,VWS V14.01,2013-01-09 13:05:00,
2013-01-09 07:10:00,28.8,24.3,30.18,NNW,329,5.0,5.0,83,0.00,,---,0.00,0.00,VWS V14.01,2013-01-09 13:10:00,
2013-01-09 07:15:00,27.9,23.7,30.20,NW,323,4.0,5.0,84,0.00,,---,0.00,0.00,VWS V14.01,2013-01-09 13:15:00,
2013-01-09 07:20:00,27.8,23.6,30.20,NW,325,3.0,5.0,84,0.00,,---,0.00,0.00,VWS V14.01,2013-01-09 13:20:00,
2013-01-09 07:25:00,27.8,23.9,30.20,NW,322,5.0,5.0,85,0.00,,---,0.00,0.00,VWS V14.01,2013-01-09 13:25:00,
2013-01-09 07:30:00,27.6,23.7,30.21,NW,320,3.0,5.0,85,0.00,,---,0.00,0.00,VWS V14.01,2013-01-09 13:30:00,
2013-01-09 07:35:00,27.9,24.3,30.21,NW,304,6.0,6.0,86,0.00,,---,0.00,0.00,VWS V14.01,2013-01-09 13:35:00,
2013-01-09 07:40:00,27.9,24.3,30.21,West,278,3.0,5.0,86,0.00,,---,0.00,0.00,VWS V14.01,2013-01-09 13:40:00,
2013-01-09 07:45:00,27.6,24.0,30.22,WNW,289,5.0,6.0,86,0.00,,---,0.00,0.00,VWS V14.01,2013-01-09 13:45:00,
2013-01-09 07:50:00,27.5,23.9,30.22,WNW,288,5.0,6.0,86,0.00,,---,0.00,0.00,VWS V14.01,2013-01-09 13:50:00,
2013-01-09 07:51:00,27.3,23.7,30.22,WNW,282,6.0,6.0,86,0.00,,---,0.00,0.00,VWS V14.01,2013-01-09 13:51:00,
2013-01-09 07:55:00,27.0,23.4,30.22,WNW,282,5.0,6.0,86,0.00,,---,0.00,0.00,VWS V14.01,2013-01-09 13:55:00,
2013-01-09 07:56:00,27.0,23.4,30.22,WNW,284,5.0,6.0,86,0.00,,---,0.00,0.00,VWS V14.01,2013-01-09 13:56:00,
2013-01-09 08:00:00,27.0,23.4,30.23,WNW,285,6.0,6.0,86,0.00,,---,0.00,0.00,VWS V14.01,2013-01-09 14:00:00,
2013-01-09 08:01:00,27.0,23.4,30.23,WNW,284,6.0,6.0,86,0.00,,---,0.00,0.00,VWS V14.01,2013-01-09 14:01:00,
2013-01-09 08:05:00,26.9,23.3,30.23,West,281,6.0,6.0,86,0.00,,---,0.00,5.00,VWS V14.01,2013-01-09 14:05:00,
2013-01-09 08:06:00,26.7,23.1,30.23,West,277,6.0,6.0,86,0.00,,---,0.00,11.00,VWS V14.01,2013-01-09 14:06:00,
2013-01-09 08:10:00,26.7,23.1,30.23,West,268,6.0,7.0,86,0.00,,---,0.00,11.00,VWS V14.01,2013-01-09 14:10:00,
2013-01-09 08:11:00,26.7,23.4,30.23,West,265,5.0,6.0,87,0.00,,---,0.00,12.00,VWS V14.01,2013-01-09 14:11:00,
2013-01-09 08:15:00,26.7,23.4,30.25,West,264,6.0,6.0,87,0.00,,---,0.00,16.00,VWS V14.01,2013-01-09 14:15:00,
2013-01-09 08:16:00,26.9,23.6,30.25,West,268,6.0,6.0,87,0.00,,---,0.00,16.00,VWS V14.01,2013-01-09 14:16:00,
2013-01-09 08:20:00,27.0,23.6,30.25,West,265,5.0,6.0,87,0.00,,---,0.00,21.00,VWS V14.01,2013-01-09 14:20:00,
2013-01-09 08:22:00,27.0,23.6,30.25,West,268,5.0,6.0,87,0.00,,---,0.00,21.00,VWS V14.01,2013-01-09 14:22:00,
2013-01-09 08:25:00,27.0,23.6,30.25,West,264,5.0,6.0,87,0.00,,---,0.00,28.00,VWS V14.01,2013-01-09 14:25:00,
2013-01-09 08:27:00,27.0,23.6,30.25,West,267,5.0,6.0,87,0.00,,---,0.00,33.00,VWS V14.01,2013-01-09 14:27:00,
2013-01-09 08:30:00,27.0,23.6,30.25,West,265,5.0,6.0,87,0.00,,---,0.00,33.00,VWS V14.01,2013-01-09 14:30:00,
2013-01-09 08:32:00,27.0,23.6,30.25,West,263,5.0,6.0,87,0.00,,---,0.00,37.00,VWS V14.01,2013-01-09 14:32:00,
2013-01-09 08:35:00,27.2,23.9,30.25,West,264,5.0,6.0,87,0.00,,---,0.00,37.00,VWS V14.01,2013-01-09 14:35:00,
2013-01-09 08:37:00,27.2,24.1,30.25,West,270,5.0,6.0,88,0.00,,---,0.00,42.00,VWS V14.01,2013-01-09 14:37:00,
2013-01-09 08:40:00,27.3,24.2,30.25,West,265,5.0,6.0,88,0.00,,---,0.00,49.00,VWS V14.01,2013-01-09 14:40:00,
2013-01-09 08:42:00,27.3,24.2,30.25,West,263,5.0,5.0,88,0.00,,---,0.00,49.00,VWS V14.01,2013-01-09 14:42:00,
2013-01-09 08:45:00,27.3,24.2,30.26,West,264,5.0,6.0,88,0.00,,---,0.00,70.00,VWS V14.01,2013-01-09 14:45:00,
2013-01-09 08:47:00,27.6,24.5,30.26,West,267,5.0,6.0,88,0.00,,---,0.00,81.00,VWS V14.01,2013-01-09 14:47:00,
2013-01-09 08:50:00,27.8,24.7,30.26,West,268,6.0,6.0,88,0.00,,---,0.00,84.00,VWS V14.01,2013-01-09 14:50:00,
2013-01-09 08:52:00,27.9,24.8,30.26,West,267,4.0,6.0,88,0.00,,---,0.00,91.00,VWS V14.01,2013-01-09 14:52:00,
2013-01-09 08:55:00,27.9,24.8,30.26,West,270,4.0,6.0,88,0.00,,---,0.00,95.00,VWS V14.01,2013-01-09 14:55:00,
2013-01-09 08:57:00,28.2,25.1,30.26,West,265,4.0,5.0,88,0.00,,---,0.00,99.00,VWS V14.01,2013-01-09 14:57:00,
2013-01-09 09:00:00,28.2,25.1,30.26,West,267,3.0,5.0,88,0.00,,---,0.00,106.00,VWS V14.01,2013-01-09 15:00:00,
2013-01-09 09:03:00,28.5,25.4,30.26,West,267,3.0,5.0,88,0.00,,---,0.00,116.00,VWS V14.01,2013-01-09 15:03:00,
2013-01-09 09:05:00,28.5,25.4,30.26,West,265,3.0,5.0,88,0.00,,---,0.00,120.00,VWS V14.01,2013-01-09 15:05:00,
2013-01-09 09:08:00,28.8,25.7,30.26,West,264,4.0,5.0,88,0.00,,---,0.00,130.00,VWS V14.01,2013-01-09 15:08:00,
2013-01-09 09:10:00,29.0,25.9,30.26,West,268,5.0,6.0,88,0.00,,---,0.00,130.00,VWS V14.01,2013-01-09 15:10:00,
2013-01-09 09:13:00,29.3,26.5,30.26,West,267,6.0,6.0,89,0.00,,---,0.00,132.00,VWS V14.01,2013-01-09 15:13:00,
2013-01-09 09:15:00,29.4,26.3,30.27,West,272,5.0,6.0,88,0.00,,---,0.00,135.00,VWS V14.01,2013-01-09 15:15:00,
2013-01-09 09:18:00,29.7,26.6,30.27,WNW,287,5.0,7.0,88,0.00,,---,0.00,158.00,VWS V14.01,2013-01-09 15:18:00,
2013-01-09 09:20:00,29.8,26.7,30.27,WNW,299,7.0,7.0,88,0.00,,---,0.00,162.00,VWS V14.01,2013-01-09 15:20:00,
2013-01-09 09:23:00,30.3,27.5,30.27,NW,322,7.0,8.0,89,0.00,,---,0.00,160.00,VWS V14.01,2013-01-09 15:23:00,
2013-01-09 09:25:00,30.6,27.8,30.27,NNW,328,9.0,9.0,89,0.00,,---,0.00,158.00,VWS V14.01,2013-01-09 15:25:00,
2013-01-09 09:28:00,31.0,27.9,30.26,NNW,336,6.0,11.0,88,0.00,,---,0.00,165.00,VWS V14.01,2013-01-09 15:28:00,
2013-01-09 09:30:00,31.0,27.9,30.26,WSW,244,7.0,11.0,88,0.00,,---,0.00,167.00,VWS V14.01,2013-01-09 15:30:00,
2013-01-09 09:33:00,31.3,28.2,30.26,NW,326,11.0,19.0,88,0.00,,---,0.00,165.00,VWS V14.01,2013-01-09 15:33:00,
2013-01-09 09:35:00,31.5,28.1,30.26,NNW,343,9.0,19.0,87,0.00,,---,0.00,171.00,VWS V14.01,2013-01-09 15:35:00,
2013-01-09 09:38:00,31.8,28.4,30.26,NW,316,7.0,11.0,87,0.00,,---,0.00,188.00,VWS V14.01,2013-01-09 15:38:00,
2013-01-09 09:40:00,31.9,28.5,30.26,WNW,287,5.0,11.0,87,0.00,,---,0.00,188.00,VWS V14.01,2013-01-09 15:40:00,
2013-01-09 09:43:00,32.4,28.7,30.28,WSW,244,7.0,19.0,86,0.00,,---,0.00,194.00,VWS V14.01,2013-01-09 15:43:00,
2013-01-09 09:45:00,32.4,28.7,30.28,SW,236,10.0,19.0,86,0.00,,---,0.00,195.00,VWS V14.01,2013-01-09 15:45:00,
2013-01-09 09:49:00,32.4,28.7,30.28,WNW,284,7.0,19.0,86,0.00,,---,0.00,197.00,VWS V14.01,2013-01-09 15:49:00,
2013-01-09 09:50:00,32.4,28.7,30.28,WNW,295,10.0,19.0,86,0.00,,---,0.00,194.00,VWS V14.01,2013-01-09 15:50:00,
2013-01-09 09:54:00,32.8,29.1,30.28,NW,309,8.0,11.0,86,0.00,,---,0.00,213.00,VWS V14.01,2013-01-09 15:54:00,
2013-01-09 09:55:00,32.8,29.1,30.28,NW,313,7.0,11.0,86,0.00,,---,0.00,213.00,VWS V14.01,2013-01-09 15:55:00,
2013-01-09 09:59:00,33.4,29.4,30.27,West,277,6.0,10.0,85,0.00,,---,0.00,223.00,VWS V14.01,2013-01-09 15:59:00,
2013-01-09 10:00:00,33.4,29.4,30.27,West,274,6.0,10.0,85,0.00,,---,0.00,223.00,VWS V14.01,2013-01-09 16:00:00,
2013-01-09 10:04:00,33.5,28.9,30.27,WSW,246,5.0,12.0,83,0.00,,---,0.00,192.00,VWS V14.01,2013-01-09 16:04:00,
2013-01-09 10:05:00,33.5,28.9,30.27,WSW,243,6.0,12.0,83,0.00,,---,0.00,192.00,VWS V14.01,2013-01-09 16:05:00,
2013-01-09 10:09:00,33.5,28.9,30.27,WSW,254,6.0,8.0,83,0.00,,---,0.00,192.00,VWS V14.01,2013-01-09 16:09:00,
2013-01-09 10:10:00,33.5,28.9,30.27,WSW,254,6.0,8.0,83,0.00,,---,0.00,192.00,VWS V14.01,2013-01-09 16:10:00,
2013-01-09 10:14:00,33.5,28.6,30.27,WSW,248,7.0,11.0,82,0.00,,---,0.00,253.00,VWS V14.01,2013-01-09 16:14:00,
2013-01-09 10:15:00,33.5,28.6,30.27,WSW,248,7.0,11.0,82,0.00,,---,0.00,253.00,VWS V14.01,2013-01-09 16:15:00,
2013-01-09 10:19:00,33.5,28.6,30.27,WSW,247,6.0,7.0,82,0.00,,---,0.00,311.00,VWS V14.01,2013-01-09 16:19:00,
2013-01-09 10:20:00,33.5,28.6,30.27,WSW,244,5.0,8.0,82,0.00,,---,0.00,311.00,VWS V14.01,2013-01-09 16:20:00,
2013-01-09 10:24:00,33.8,28.9,30.27,SW,236,1.0,2.0,82,0.00,,---,0.00,287.00,VWS V14.01,2013-01-09 16:24:00,
2013-01-09 10:25:00,33.8,28.9,30.27,WSW,239,1.0,8.0,82,0.00,,---,0.00,287.00,VWS V14.01,2013-01-09 16:25:00,
2013-01-09 10:29:00,34.3,29.4,30.28,WSW,239,5.0,5.0,82,0.00,,---,0.00,294.00,VWS V14.01,2013-01-09 16:29:00,
2013-01-09 10:30:00,34.3,29.4,30.28,WSW,240,5.0,5.0,82,0.00,,---,0.00,294.00,VWS V14.01,2013-01-09 16:30:00,
2013-01-09 10:34:00,34.7,29.8,30.28,West,270,6.0,6.0,82,0.00,,---,0.00,299.00,VWS V14.01,2013-01-09 16:34:00,
2013-01-09 10:35:00,34.7,29.8,30.28,West,267,5.0,6.0,82,0.00,,---,0.00,297.00,VWS V14.01,2013-01-09 16:35:00,
2013-01-09 10:40:00,35.6,30.4,30.28,NNW,330,6.0,6.0,81,0.00,,---,0.00,246.00,VWS V14.01,2013-01-09 16:40:00,
2013-01-09 10:45:00,36.3,30.4,30.27,North,357,7.0,8.0,79,0.00,,---,0.00,292.00,VWS V14.01,2013-01-09 16:45:00,
2013-01-09 10:50:00,36.8,30.6,30.27,NNW,347,4.0,5.0,78,0.00,,---,0.00,318.00,VWS V14.01,2013-01-09 16:50:00,
2013-01-09 10:55:00,37.6,31.1,30.27,NNW,339,3.0,7.0,77,0.00,,---,0.00,340.00,VWS V14.01,2013-01-09 16:55:00,
2013-01-09 11:00:00,38.5,31.3,30.26,NNW,344,3.0,7.0,75,0.00,,---,0.00,350.00,VWS V14.01,2013-01-09 17:00:00,
2013-01-09 11:05:00,38.8,30.9,30.26,NNW,329,5.0,6.0,73,0.00,,---,0.00,380.00,VWS V14.01,2013-01-09 17:05:00,
2013-01-09 11:10:00,39.2,31.0,30.26,NNW,332,5.0,7.0,72,0.00,,---,0.00,347.00,VWS V14.01,2013-01-09 17:10:00,
2013-01-09 11:15:00,39.8,31.5,30.25,NNW,335,5.0,6.0,72,0.00,,---,0.00,318.00,VWS V14.01,2013-01-09 17:15:00,
2013-01-09 11:20:00,40.6,31.6,30.25,North,350,6.0,6.0,70,0.00,,---,0.00,326.00,VWS V14.01,2013-01-09 17:20:00,
2013-01-09 11:25:00,40.9,31.5,30.25,NNW,339,8.0,10.0,69,0.00,,---,0.00,333.00,VWS V14.01,2013-01-09 17:25:00,
2013-01-09 11:26:00,41.1,31.7,30.25,North,359,10.0,12.0,69,0.00,,---,0.00,310.00,VWS V14.01,2013-01-09 17:26:00,
2013-01-09 11:30:00,41.3,31.9,30.23,NW,323,7.0,12.0,69,0.00,,---,0.00,317.00,VWS V14.01,2013-01-09 17:30:00,
2013-01-09 11:31:00,41.5,31.7,30.23,NNW,347,5.0,7.0,68,0.00,,---,0.00,322.00,VWS V14.01,2013-01-09 17:31:00,
2013-01-09 11:35:00,41.9,32.1,30.23,North,357,7.0,10.0,68,0.00,,---,0.00,269.00,VWS V14.01,2013-01-09 17:35:00,
2013-01-09 11:36:00,42.3,32.1,30.23,North,0,8.0,10.0,67,0.00,,---,0.00,202.00,VWS V14.01,2013-01-09 17:36:00,
2013-01-09 11:40:00,42.8,32.2,30.23,North,359,6.0,10.0,66,0.00,,---,0.00,150.00,VWS V14.01,2013-01-09 17:40:00,
2013-01-09 11:41:00,42.9,32.3,30.23,North,0,4.0,6.0,66,0.00,,---,0.00,157.00,VWS V14.01,2013-01-09 17:41:00,
2013-01-09 11:45:00,43.3,32.3,30.22,North,0,5.0,7.0,65,0.00,,---,0.00,151.00,VWS V14.01,2013-01-09 17:45:00,
2013-01-09 11:46:00,43.8,32.8,30.22,NNW,343,5.0,7.0,65,0.00,,---,0.00,153.00,VWS V14.01,2013-01-09 17:46:00,
2013-01-09 11:50:00,44.3,32.9,30.22,NNW,335,1.0,7.0,64,0.00,,---,0.00,150.00,VWS V14.01,2013-01-09 17:50:00,
2013-01-09 11:51:00,44.8,33.4,30.22,NNW,336,0.0,1.0,64,0.00,,---,0.00,165.00,VWS V14.01,2013-01-09 17:51:00,
2013-01-09 11:55:00,45.4,33.2,30.22,NNW,333,0.0,1.0,62,0.00,,---,0.00,178.00,VWS V14.01,2013-01-09 17:55:00,
2013-01-09 11:56:00,45.7,33.0,30.22,NNW,337,5.0,5.0,61,0.00,,---,0.00,223.00,VWS V14.01,2013-01-09 17:56:00,
2013-01-09 12:00:00,45.8,32.7,30.21,NNW,339,2.0,6.0,60,0.00,,---,0.00,308.00,VWS V14.01,2013-01-09 18:00:00,
2013-01-09 12:01:00,46.1,33.0,30.21,NNW,333,3.0,5.0,60,0.00,,---,0.00,340.00,VWS V14.01,2013-01-09 18:01:00,
2013-01-09 12:05:00,46.5,33.0,30.21,NNW,332,3.0,5.0,59,0.00,,---,0.00,222.00,VWS V14.01,2013-01-09 18:05:00,
2013-01-09 12:06:00,46.8,32.8,30.21,NNW,339,6.0,6.0,58,0.00,,---,0.00,192.00,VWS V14.01,2013-01-09 18:06:00,
2013-01-09 12:10:00,47.1,33.1,30.21,NNW,337,1.0,6.0,58,0.00,,---,0.00,201.00,VWS V14.01,2013-01-09 18:10:00,
2013-01-09 12:11:00,47.4,33.0,30.21,NNW,337,0.0,2.0,57,0.00,,---,0.00,208.00,VWS V14.01,2013-01-09 18:11:00,
2013-01-09 12:15:00,47.9,33.4,30.21,NNW,337,0.0,2.0,57,0.00,,---,0.00,208.00,VWS V14.01,2013-01-09 18:15:00,
2013-01-09 12:16:00,48.2,33.3,30.21,NNW,336,0.0,0.0,56,0.00,,---,0.00,223.00,VWS V14.01,2013-01-09 18:16:00,
2013-01-09 12:20:00,48.5,33.1,30.21,NNW,337,0.0,0.0,55,0.00,,---,0.00,292.00,VWS V14.01,2013-01-09 18:20:00,
2013-01-09 12:21:00,48.8,32.9,30.21,NNW,342,3.0,5.0,54,0.00,,---,0.00,308.00,VWS V14.01,2013-01-09 18:21:00,
2013-01-09 12:25:00,49.1,32.7,30.21,North,353,0.0,5.0,53,0.00,,---,0.00,252.00,VWS V14.01,2013-01-09 18:25:00,
2013-01-09 12:26:00,49.4,32.5,30.21,North,359,3.0,3.0,52,0.00,,---,0.00,202.00,VWS V14.01,2013-01-09 18:26:00,
2013-01-09 12:30:00,49.5,32.6,30.20,North,0,0.0,3.0,52,0.00,,---,0.00,187.00,VWS V14.01,2013-01-09 18:30:00,
2013-01-09 12:32:00,49.8,31.9,30.20,North,0,1.0,3.0,50,0.00,,---,0.00,174.00,VWS V14.01,2013-01-09 18:32:00,
2013-01-09 12:35:00,49.9,32.0,30.20,NW,320,2.0,5.0,50,0.00,,---,0.00,169.00,VWS V14.01,2013-01-09 18:35:00,
2013-01-09 12:37:00,49.9,32.0,30.20,NNE,28,3.0,6.0,50,0.00,,---,0.00,167.00,VWS V14.01,2013-01-09 18:37:00,
2013-01-09 12:40:00,49.8,31.9,30.20,NNE,31,2.0,6.0,50,0.00,,---,0.00,165.00,VWS V14.01,2013-01-09 18:40:00,
2013-01-09 12:41:00,49.8,31.9,30.20,NE,41,5.0,5.0,50,0.00,,---,0.00,174.00,VWS V14.01,2013-01-09 18:41:00,
2013-01-09 12:42:00,49.8,31.9,30.20,NE,45,3.0,5.0,50,0.00,,---,0.00,174.00,VWS V14.01,2013-01-09 18:42:00,
2013-01-09 12:44:00,49.8,31.9,30.19,NE,41,5.0,6.0,50,0.00,,---,0.00,174.00,VWS V14.01,2013-01-09 18:44:00,
2013-01-09 12:45:00,49.8,31.9,30.19,NE,40,3.0,6.0,50,0.00,,---,0.00,174.00,VWS V14.01,2013-01-09 18:45:00,
2013-01-09 12:46:00,49.9,32.0,30.19,NE,47,2.0,4.0,50,0.00,,---,0.00,176.00,VWS V14.01,2013-01-09 18:46:00,
2013-01-09 12:48:00,49.9,32.0,30.19,NE,47,3.0,4.0,50,0.00,,---,0.00,179.00,VWS V14.01,2013-01-09 18:48:00,
2013-01-09 12:49:00,49.9,32.0,30.19,NE,45,3.0,4.0,50,0.00,,---,0.00,185.00,VWS V14.01,2013-01-09 18:49:00,
2013-01-09 12:50:00,49.9,32.0,30.19,NE,51,2.0,4.0,50,0.00,,---,0.00,185.00,VWS V14.01,2013-01-09 18:50:00,
2013-01-09 12:54:00,50.7,31.7,30.19,NE,52,3.0,6.0,48,0.00,,---,0.00,248.00,VWS V14.01,2013-01-09 18:54:00,
2013-01-09 12:55:00,50.7,31.7,30.19,NE,52,3.0,6.0,48,0.00,,---,0.00,248.00,VWS V14.01,2013-01-09 18:55:00,
2013-01-09 12:59:00,51.1,32.6,30.18,NE,51,1.0,2.0,49,0.00,,---,0.00,384.00,VWS V14.01,2013-01-09 18:59:00,
2013-01-09 13:00:00,51.0,32.5,30.18,NE,51,2.0,3.0,49,0.00,,---,0.00,384.00,VWS V14.01,2013-01-09 19:00:00,
2013-01-09 13:04:00,51.3,33.8,30.18,East,86,1.0,3.0,51,0.00,,---,0.00,266.00,VWS V14.01,2013-01-09 19:04:00,
2013-01-09 13:05:00,51.3,33.8,30.18,East,82,1.0,6.0,51,0.00,,---,0.00,266.00,VWS V14.01,2013-01-09 19:05:00,
2013-01-09 13:09:00,51.1,33.1,30.18,East,80,2.0,5.0,50,0.00,,---,0.00,211.00,VWS V14.01,2013-01-09 19:09:00,
2013-01-09 13:10:00,51.3,33.3,30.18,East,86,4.0,5.0,50,0.00,,---,0.00,197.00,VWS V14.01,2013-01-09 19:10:00,
2013-01-09 13:14:00,51.1,33.1,30.17,East,83,4.0,4.0,50,0.00,,---,0.00,306.00,VWS V14.01,2013-01-09 19:14:00,
2013-01-09 13:15:00,51.1,33.1,30.17,East,83,3.0,5.0,50,0.00,,---,0.00,306.00,VWS V14.01,2013-01-09 19:15:00,
2013-01-09 13:20:00,51.1,32.6,30.17,East,80,2.0,3.0,49,0.00,,---,0.00,317.00,VWS V14.01,2013-01-09 19:20:00,
2013-01-09 13:25:00,51.4,32.4,30.17,ENE,76,5.0,5.0,48,0.00,,---,0.00,308.00,VWS V14.01,2013-01-09 19:25:00,
2013-01-09 13:30:00,51.3,32.3,30.17,ENE,65,2.0,2.0,48,0.00,,---,0.00,311.00,VWS V14.01,2013-01-09 19:30:00,
2013-01-09 13:35:00,51.4,32.4,30.17,ENE,66,2.0,3.0,48,0.00,,---,0.00,289.00,VWS V14.01,2013-01-09 19:35:00,
2013-01-09 13:40:00,51.6,32.6,30.17,ENE,64,1.0,3.0,48,0.00,,---,0.00,202.00,VWS V14.01,2013-01-09 19:40:00,
2013-01-09 13:45:00,51.7,32.7,30.17,ENE,71,1.0,5.0,48,0.00,,---,0.00,202.00,VWS V14.01,2013-01-09 19:45:00,
2013-01-09 13:46:00,51.7,32.7,30.17,ENE,65,0.0,5.0,48,0.00,,---,0.00,208.00,VWS V14.01,2013-01-09 19:46:00,
2013-01-09 13:50:00,51.7,32.1,30.17,ENE,73,3.0,6.0,47,0.00,,---,0.00,260.00,VWS V14.01,2013-01-09 19:50:00,
2013-01-09 13:51:00,51.7,32.1,30.17,ENE,69,3.0,3.0,47,0.00,,---,0.00,310.00,VWS V14.01,2013-01-09 19:51:00,
2013-01-09 13:55:00,51.6,32.0,30.17,ENE,69,0.0,5.0,47,0.00,,---,0.00,313.00,VWS V14.01,2013-01-09 19:55:00,
2013-01-09 13:56:00,51.7,32.1,30.17,ENE,69,3.0,3.0,47,0.00,,---,0.00,299.00,VWS V14.01,2013-01-09 19:56:00,
2013-01-09 14:00:00,51.9,32.3,30.17,ENE,73,0.0,3.0,47,0.00,,---,0.00,296.00,VWS V14.01,2013-01-09 20:00:00,
2013-01-09 14:01:00,51.9,31.8,30.17,ENE,73,0.0,2.0,46,0.00,,---,0.00,280.00,VWS V14.01,2013-01-09 20:01:00,
2013-01-09 14:05:00,52.2,31.5,30.17,ENE,72,3.0,3.0,45,0.00,,---,0.00,287.00,VWS V14.01,2013-01-09 20:05:00,
2013-01-09 14:06:00,52.2,32.1,30.17,East,88,5.0,5.0,46,0.00,,---,0.00,274.00,VWS V14.01,2013-01-09 20:06:00,
2013-01-09 14:10:00,52.3,31.6,30.17,East,85,1.0,5.0,45,0.00,,---,0.00,287.00,VWS V14.01,2013-01-09 20:10:00,
2013-01-09 14:11:00,52.6,31.9,30.17,East,92,2.0,3.0,45,0.00,,---,0.00,262.00,VWS V14.01,2013-01-09 20:11:00,
2013-01-09 14:15:00,52.8,32.6,30.19,ESE,102,2.0,6.0,46,0.00,,---,0.00,255.00,VWS V14.01,2013-01-09 20:15:00,
2013-01-09 14:16:00,52.8,32.6,30.19,East,99,5.0,5.0,46,0.00,,---,0.00,253.00,VWS V14.01,2013-01-09 20:16:00,
2013-01-09 14:20:00,52.6,32.4,30.19,East,100,0.0,5.0,46,0.00,,---,0.00,245.00,VWS V14.01,2013-01-09 20:20:00,
2013-01-09 14:21:00,52.6,33.0,30.19,East,99,4.0,5.0,47,0.00,,---,0.00,239.00,VWS V14.01,2013-01-09 20:21:00,
2013-01-09 14:25:00,52.8,33.2,30.19,East,99,3.0,7.0,47,0.00,,---,0.00,234.00,VWS V14.01,2013-01-09 20:25:00,
2013-01-09 14:26:00,52.6,32.4,30.19,East,100,2.0,4.0,46,0.00,,---,0.00,230.00,VWS V14.01,2013-01-09 20:26:00,
2013-01-09 14:30:00,52.8,33.2,30.19,ESE,112,5.0,7.0,47,0.00,,---,0.00,230.00,VWS V14.01,2013-01-09 20:30:00,
2013-01-09 14:32:00,52.8,32.6,30.19,ESE,112,4.0,7.0,46,0.00,,---,0.00,229.00,VWS V14.01,2013-01-09 20:32:00,
2013-01-09 14:35:00,52.6,33.0,30.19,ESE,109,0.0,7.0,47,0.00,,---,0.00,222.00,VWS V14.01,2013-01-09 20:35:00,
2013-01-09 14:37:00,52.8,32.6,30.19,ESE,109,0.0,2.0,46,0.00,,---,0.00,211.00,VWS V14.01,2013-01-09 20:37:00,
2013-01-09 14:40:00,52.9,33.2,30.19,ESE,107,1.0,2.0,47,0.00,,---,0.00,209.00,VWS V14.01,2013-01-09 20:40:00,
2013-01-09 14:42:00,53.1,32.9,30.19,ESE,112,2.0,3.0,46,0.00,,---,0.00,215.00,VWS V14.01,2013-01-09 20:42:00,
2013-01-09 14:45:00,53.1,33.4,30.18,ESE,113,3.0,3.0,47,0.00,,---,0.00,211.00,VWS V14.01,2013-01-09 20:45:00,
2013-01-09 14:47:00,53.1,34.0,30.18,ESE,113,2.0,6.0,48,0.00,,---,0.00,199.00,VWS V14.01,2013-01-09 20:47:00,
2013-01-09 14:50:00,53.1,33.9,30.18,ESE,116,5.0,6.0,48,0.00,,---,0.00,202.00,VWS V14.01,2013-01-09 20:50:00,
2013-01-09 14:52:00,53.1,34.0,30.18,ESE,103,4.0,5.0,48,0.00,,---,0.00,209.00,VWS V14.01,2013-01-09 20:52:00,
2013-01-09 14:55:00,53.1,33.9,30.18,ESE,104,2.0,5.0,48,0.00,,---,0.00,208.00,VWS V14.01,2013-01-09 20:55:00,
2013-01-09 14:57:00,53.1,33.4,30.18,East,97,3.0,4.0,47,0.00,,---,0.00,194.00,VWS V14.01,2013-01-09 20:57:00,
2013-01-09 15:00:00,53.1,33.4,30.18,ESE,102,1.0,4.0,47,0.00,,---,0.00,185.00,VWS V14.01,2013-01-09 21:00:00,
2013-01-09 15:03:00,53.2,33.5,30.18,East,99,2.0,3.0,47,0.00,,---,0.00,179.00,VWS V14.01,2013-01-09 21:03:00,
2013-01-09 15:05:00,53.2,33.0,30.18,East,99,0.0,3.0,46,0.00,,---,0.00,176.00,VWS V14.01,2013-01-09 21:05:00,
2013-01-09 15:08:00,53.2,33.0,30.18,East,99,1.0,2.0,46,0.00,,---,0.00,162.00,VWS V14.01,2013-01-09 21:08:00,
2013-01-09 15:10:00,53.2,32.4,30.18,ESE,103,1.0,2.0,45,0.00,,---,0.00,160.00,VWS V14.01,2013-01-09 21:10:00,
2013-01-09 15:13:00,53.1,32.3,30.18,East,93,3.0,5.0,45,0.00,,---,0.00,153.00,VWS V14.01,2013-01-09 21:13:00,
2013-01-09 15:15:00,53.1,32.3,30.18,East,86,4.0,5.0,45,0.00,,---,0.00,150.00,VWS V14.01,2013-01-09 21:15:00,
2013-01-09 15:18:00,52.9,32.2,30.18,East,82,3.0,5.0,45,0.00,,---,0.00,141.00,VWS V14.01,2013-01-09 21:18:00,
2013-01-09 15:20:00,52.9,32.2,30.18,East,88,2.0,5.0,45,0.00,,---,0.00,139.00,VWS V14.01,2013-01-09 21:20:00,
2013-01-09 15:23:00,52.8,32.1,30.18,East,83,3.0,5.0,45,0.00,,---,0.00,132.00,VWS V14.01,2013-01-09 21:23:00,
2013-01-09 15:25:00,52.8,32.6,30.18,East,82,3.0,5.0,46,0.00,,---,0.00,130.00,VWS V14.01,2013-01-09 21:25:00,
2013-01-09 15:28:00,52.6,31.9,30.18,East,83,3.0,5.0,45,0.00,,---,0.00,123.00,VWS V14.01,2013-01-09 21:28:00,
2013-01-09 15:30:00,52.6,31.9,30.19,East,85,2.0,5.0,45,0.00,,---,0.00,121.00,VWS V14.01,2013-01-09 21:30:00,
2013-01-09 15:33:00,52.5,31.8,30.19,ENE,75,4.0,5.0,45,0.00,,---,0.00,114.00,VWS V14.01,2013-01-09 21:33:00,
2013-01-09 15:35:00,52.5,31.8,30.19,ENE,76,4.0,5.0,45,0.00,,---,0.00,114.00,VWS V14.01,2013-01-09 21:35:00,
2013-01-09 15:38:00,52.3,32.2,30.19,ENE,73,3.0,5.0,46,0.00,,---,0.00,111.00,VWS V14.01,2013-01-09 21:38:00,
2013-01-09 15:40:00,52.3,32.2,30.19,ENE,78,3.0,5.0,46,0.00,,---,0.00,111.00,VWS V14.01,2013-01-09 21:40:00,
2013-01-09 15:43:00,52.2,32.6,30.18,ENE,72,2.0,4.0,47,0.00,,---,0.00,118.00,VWS V14.01,2013-01-09 21:43:00,
2013-01-09 15:45:00,52.2,32.6,30.18,ENE,75,3.0,4.0,47,0.00,,---,0.00,118.00,VWS V14.01,2013-01-09 21:45:00,
2013-01-09 15:48:00,52.2,32.6,30.18,ENE,73,5.0,5.0,47,0.00,,---,0.00,111.00,VWS V14.01,2013-01-09 21:48:00,
2013-01-09 15:50:00,52.2,33.1,30.18,ENE,66,4.0,5.0,48,0.00,,---,0.00,111.00,VWS V14.01,2013-01-09 21:50:00,
2013-01-09 15:53:00,52.0,32.9,30.18,ENE,71,3.0,5.0,48,0.00,,---,0.00,102.00,VWS V14.01,2013-01-09 21:53:00,
2013-01-09 15:55:00,52.0,32.9,30.18,ENE,75,3.0,5.0,48,0.00,,---,0.00,100.00,VWS V14.01,2013-01-09 21:55:00,
2013-01-09 15:59:00,51.9,33.4,30.18,ENE,72,3.0,5.0,49,0.00,,---,0.00,95.00,VWS V14.01,2013-01-09 21:59:00,
2013-01-09 16:00:00,51.9,33.4,30.18,ENE,78,4.0,5.0,49,0.00,,---,0.00,95.00,VWS V14.01,2013-01-09 22:00:00,
2013-01-09 16:04:00,51.7,33.7,30.18,East,79,3.0,6.0,50,0.00,,---,0.00,84.00,VWS V14.01,2013-01-09 22:04:00,
2013-01-09 16:05:00,51.7,33.7,30.18,East,83,4.0,6.0,50,0.00,,---,0.00,84.00,VWS V14.01,2013-01-09 22:05:00,
2013-01-09 16:09:00,51.4,33.9,30.18,ENE,75,1.0,4.0,51,0.00,,---,0.00,70.00,VWS V14.01,2013-01-09 22:09:00,
2013-01-09 16:10:00,51.4,33.9,30.18,ENE,75,2.0,4.0,51,0.00,,---,0.00,70.00,VWS V14.01,2013-01-09 22:10:00,
2013-01-09 16:14:00,51.1,33.6,30.17,East,80,3.0,5.0,51,0.00,,---,0.00,63.00,VWS V14.01,2013-01-09 22:14:00,
2013-01-09 16:15:00,51.1,33.6,30.17,ENE,75,4.0,5.0,51,0.00,,---,0.00,63.00,VWS V14.01,2013-01-09 22:15:00,
2013-01-09 16:19:00,50.8,33.3,30.17,East,79,2.0,5.0,51,0.00,,---,0.00,60.00,VWS V14.01,2013-01-09 22:19:00,
2013-01-09 16:20:00,50.8,33.3,30.17,ENE,73,2.0,5.0,51,0.00,,---,0.00,60.00,VWS V14.01,2013-01-09 22:20:00,
2013-01-09 16:24:00,50.7,33.2,30.17,East,79,3.0,5.0,51,0.00,,---,0.00,55.00,VWS V14.01,2013-01-09 22:24:00,
2013-01-09 16:25:00,50.7,33.2,30.17,ENE,78,2.0,5.0,51,0.00,,---,0.00,55.00,VWS V14.01,2013-01-09 22:25:00,
2013-01-09 16:29:00,50.4,33.0,30.18,ENE,78,5.0,5.0,51,0.00,,---,0.00,49.00,VWS V14.01,2013-01-09 22:29:00,
2013-01-09 16:30:00,50.4,33.0,30.18,ENE,78,5.0,5.0,51,0.00,,---,0.00,49.00,VWS V14.01,2013-01-09 22:30:00,
2013-01-09 16:34:00,50.1,33.2,30.18,East,79,3.0,5.0,52,0.00,,---,0.00,42.00,VWS V14.01,2013-01-09 22:34:00,
2013-01-09 16:35:00,50.1,33.2,30.18,East,79,3.0,5.0,52,0.00,,---,0.00,42.00,VWS V14.01,2013-01-09 22:35:00,
2013-01-09 16:39:00,49.8,32.9,30.18,ENE,76,3.0,5.0,52,0.00,,---,0.00,40.00,VWS V14.01,2013-01-09 22:39:00,
2013-01-09 16:40:00,49.8,32.9,30.18,ENE,76,3.0,5.0,52,0.00,,---,0.00,40.00,VWS V14.01,2013-01-09 22:40:00,
2013-01-09 16:44:00,49.6,32.7,30.17,ENE,73,3.0,5.0,52,0.00,,---,0.00,32.00,VWS V14.01,2013-01-09 22:44:00,
2013-01-09 16:45:00,49.6,32.7,30.17,ENE,73,3.0,5.0,52,0.00,,---,0.00,32.00,VWS V14.01,2013-01-09 22:45:00,
2013-01-09 16:49:00,49.5,33.1,30.17,ENE,78,3.0,4.0,53,0.00,,---,0.00,26.00,VWS V14.01,2013-01-09 22:49:00,
2013-01-09 16:50:00,49.5,33.1,30.17,ENE,78,3.0,4.0,53,0.00,,---,0.00,26.00,VWS V14.01,2013-01-09 22:50:00,
2013-01-09 16:54:00,49.2,32.8,30.17,ENE,75,3.0,5.0,53,0.00,,---,0.00,25.00,VWS V14.01,2013-01-09 22:54:00,
2013-01-09 16:55:00,49.2,32.8,30.17,ENE,75,3.0,5.0,53,0.00,,---,0.00,25.00,VWS V14.01,2013-01-09 22:55:00,
2013-01-09 16:59:00,49.1,32.7,30.18,ENE,73,3.0,5.0,53,0.00,,---,0.00,21.00,VWS V14.01,2013-01-09 22:59:00,
2013-01-09 17:00:00,49.1,32.7,30.18,ENE,73,3.0,5.0,53,0.00,,---,0.00,21.00,VWS V14.01,2013-01-09 23:00:00,
2013-01-09 17:04:00,48.8,32.9,30.18,ENE,73,3.0,5.0,54,0.00,,---,0.00,18.00,VWS V14.01,2013-01-09 23:04:00,
2013-01-09 17:05:00,48.8,32.9,30.18,ENE,73,3.0,5.0,54,0.00,,---,0.00,18.00,VWS V14.01,2013-01-09 23:05:00,
2013-01-09 17:09:00,48.6,32.7,30.18,ENE,76,3.0,5.0,54,0.00,,---,0.00,0.00,VWS V14.01,2013-01-09 23:09:00,
2013-01-09 17:10:00,48.6,32.7,30.18,ENE,76,3.0,5.0,54,0.00,,---,0.00,0.00,VWS V14.01,2013-01-09 23:10:00,
2013-01-09 17:14:00,48.3,32.9,30.17,ENE,75,3.0,5.0,55,0.00,,---,0.00,0.00,VWS V14.01,2013-01-09 23:14:00,
2013-01-09 17:15:00,48.3,32.9,30.17,ENE,75,3.0,5.0,55,0.00,,---,0.00,0.00,VWS V14.01,2013-01-09 23:15:00,
2013-01-09 17:19:00,48.2,32.8,30.17,ENE,72,2.0,3.0,55,0.00,,---,0.00,0.00,VWS V14.01,2013-01-09 23:19:00,
2013-01-09 17:20:00,48.2,32.8,30.17,ENE,73,3.0,5.0,55,0.00,,---,0.00,0.00,VWS V14.01,2013-01-09 23:20:00,
2013-01-09 17:24:00,47.9,33.0,30.17,ENE,76,2.0,3.0,56,0.00,,---,0.00,0.00,VWS V14.01,2013-01-09 23:24:00,
2013-01-09 17:25:00,47.9,33.0,30.17,ENE,72,3.0,3.0,56,0.00,,---,0.00,0.00,VWS V14.01,2013-01-09 23:25:00,
2013-01-09 17:29:00,47.7,32.8,30.18,ENE,78,3.0,3.0,56,0.00,,---,0.00,0.00,VWS V14.01,2013-01-09 23:29:00,
2013-01-09 17:30:00,47.7,32.8,30.18,ENE,76,2.0,3.0,56,0.00,,---,0.00,0.00,VWS V14.01,2013-01-09 23:30:00,
2013-01-09 17:34:00,47.7,32.8,30.18,ENE,76,3.0,3.0,56,0.00,,---,0.00,0.00,VWS V14.01,2013-01-09 23:34:00,
2013-01-09 17:35:00,47.7,32.8,30.18,ENE,73,2.0,3.0,56,0.00,,---,0.00,0.00,VWS V14.01,2013-01-09 23:35:00,
2013-01-09 17:40:00,47.7,33.2,30.18,ENE,75,3.0,3.0,57,0.00,,---,0.00,0.00,VWS V14.01,2013-01-09 23:40:00,
2013-01-09 17:45:00,47.6,33.1,30.18,ENE,78,3.0,3.0,57,0.00,,---,0.00,0.00,VWS V14.01,2013-01-09 23:45:00,
2013-01-09 17:50:00,47.4,33.4,30.18,ENE,78,3.0,3.0,58,0.00,,---,0.00,0.00,VWS V14.01,2013-01-09 23:50:00,
2013-01-09 17:55:00,47.3,33.3,30.18,ENE,76,1.0,2.0,58,0.00,,---,0.00,0.00,VWS V14.01,2013-01-09 23:55:00,
2013-01-09 18:00:00,47.3,33.3,30.19,ENE,75,2.0,3.0,58,0.00,,---,0.00,0.00,VWS V14.01,2013-01-10 00:00:00,
2013-01-09 18:05:00,47.3,33.3,30.19,East,80,3.0,3.0,58,0.00,,---,0.00,0.00,VWS V14.01,2013-01-10 00:05:00,
2013-01-09 18:10:00,47.1,33.1,30.19,East,79,2.0,3.0,58,0.00,,---,0.00,0.00,VWS V14.01,2013-01-10 00:10:00,
2013-01-09 18:15:00,47.0,33.4,30.19,ENE,73,3.0,3.0,59,0.00,,---,0.00,0.00,VWS V14.01,2013-01-10 00:15:00,
2013-01-09 18:20:00,46.7,33.2,30.19,ENE,73,3.0,3.0,59,0.00,,---,0.00,0.00,VWS V14.01,2013-01-10 00:20:00,
2013-01-09 18:25:00,46.5,33.0,30.19,ENE,76,4.0,5.0,59,0.00,,---,0.00,0.00,VWS V14.01,2013-01-10 00:25:00,
2013-01-09 18:30:00,46.4,33.3,30.19,ENE,71,5.0,5.0,60,0.00,,---,0.00,0.00,VWS V14.01,2013-01-10 00:30:00,
2013-01-09 18:35:00,46.1,33.0,30.19,ENE,75,2.0,3.0,60,0.00,,---,0.00,0.00,VWS V14.01,2013-01-10 00:35:00,
2013-01-09 18:40:00,45.8,33.1,30.19,ENE,76,3.0,3.0,61,0.00,,---,0.00,0.00,VWS V14.01,2013-01-10 00:40:00,
2013-01-09 18:41:00,45.8,33.1,30.19,ENE,78,2.0,3.0,61,0.00,,---,0.00,0.00,VWS V14.01,2013-01-10 00:41:00,
2013-01-09 18:45:00,45.8,33.1,30.18,ENE,78,3.0,4.0,61,0.00,,---,0.00,0.00,VWS V14.01,2013-01-10 00:45:00,
2013-01-09 18:46:00,45.7,33.0,30.18,ENE,73,6.0,6.0,61,0.00,,---,0.00,0.00,VWS V14.01,2013-01-10 00:46:00,
2013-01-09 18:50:00,45.5,32.8,30.18,East,80,5.0,6.0,61,0.00,,---,0.00,0.00,VWS V14.01,2013-01-10 00:50:00,
2013-01-09 18:51:00,45.4,33.2,30.18,East,79,5.0,6.0,62,0.00,,---,0.00,0.00,VWS V14.01,2013-01-10 00:51:00,
2013-01-09 18:55:00,45.2,33.0,30.18,East,80,4.0,6.0,62,0.00,,---,0.00,0.00,VWS V14.01,2013-01-10 00:55:00,
2013-01-09 18:56:00,45.1,33.3,30.18,East,79,4.0,5.0,63,0.00,,---,0.00,0.00,VWS V14.01,2013-01-10 00:56:00,
2013-01-09 19:00:00,45.1,32.9,30.18,ENE,76,3.0,5.0,62,0.00,,---,0.00,0.00,VWS V14.01,2013-01-10 01:00:00,
2013-01-09 19:01:00,45.1,33.3,30.18,East,83,5.0,5.0,63,0.00,,---,0.00,0.00,VWS V14.01,2013-01-10 01:01:00,
2013-01-09 19:05:00,44.8,33.0,30.18,East,80,5.0,5.0,63,0.00,,---,0.00,0.00,VWS V14.01,2013-01-10 01:05:00,
2013-01-09 19:06:00,44.8,33.0,30.18,East,82,5.0,6.0,63,0.00,,---,0.00,0.00,VWS V14.01,2013-01-10 01:06:00,
2013-01-09 19:10:00,44.6,32.8,30.18,East,83,5.0,6.0,63,0.00,,---,0.00,0.00,VWS V14.01,2013-01-10 01:10:00,
2013-01-09 19:11:00,44.6,33.2,30.18,East,86,6.0,6.0,64,0.00,,---,0.00,0.00,VWS V14.01,2013-01-10 01:11:00,
2013-01-09 19:15:00,44.5,33.1,30.17,East,85,2.0,6.0,64,0.00,,---,0.00,0.00,VWS V14.01,2013-01-10 01:15:00,
2013-01-09 19:16:00,44.3,32.9,30.17,East,85,4.0,5.0,64,0.00,,---,0.00,0.00,VWS V14.01,2013-01-10 01:16:00,
2013-01-09 19:20:00,44.2,32.8,30.17,East,82,4.0,5.0,64,0.00,,---,0.00,0.00,VWS V14.01,2013-01-10 01:20:00,
2013-01-09 19:21:00,44.1,33.1,30.17,East,83,3.0,5.0,65,0.00,,---,0.00,0.00,VWS V14.01,2013-01-10 01:21:00,
2013-01-09 19:25:00,43.8,32.8,30.17,East,86,4.0,5.0,65,0.00,,---,0.00,0.00,VWS V14.01,2013-01-10 01:25:00,
2013-01-09 19:26:00,43.6,32.6,30.17,East,82,5.0,5.0,65,0.00,,---,0.00,0.00,VWS V14.01,2013-01-10 01:26:00,
2013-01-09 19:30:00,43.3,32.7,30.18,East,86,5.0,6.0,66,0.00,,---,0.00,0.00,VWS V14.01,2013-01-10 01:30:00,
2013-01-09 19:32:00,43.2,32.6,30.18,East,82,6.0,6.0,66,0.00,,---,0.00,0.00,VWS V14.01,2013-01-10 01:32:00,
2013-01-09 19:35:00,43.3,32.7,30.18,East,85,5.0,6.0,66,0.00,,---,0.00,0.00,VWS V14.01,2013-01-10 01:35:00,
2013-01-09 19:37:00,43.3,32.7,30.18,East,89,5.0,6.0,66,0.00,,---,0.00,0.00,VWS V14.01,2013-01-10 01:37:00,
2013-01-09 19:40:00,43.3,32.3,30.18,East,85,6.0,6.0,65,0.00,,---,0.00,0.00,VWS V14.01,2013-01-10 01:40:00,
2013-01-09 19:42:00,43.5,32.5,30.18,East,86,6.0,6.0,65,0.00,,---,0.00,0.00,VWS V14.01,2013-01-10 01:42:00,
2013-01-09 19:45:00,43.5,32.5,30.17,East,92,6.0,6.0,65,0.00,,---,0.00,0.00,VWS V14.01,2013-01-10 01:45:00,
2013-01-09 19:47:00,43.8,32.4,30.17,East,90,5.0,7.0,64,0.00,,---,0.00,0.00,VWS V14.01,2013-01-10 01:47:00,
2013-01-09 19:50:00,43.8,32.4,30.17,East,90,5.0,7.0,64,0.00,,---,0.00,0.00,VWS V14.01,2013-01-10 01:50:00,
2013-01-09 19:52:00,43.9,32.5,30.17,East,88,4.0,6.0,64,0.00,,---,0.00,0.00,VWS V14.01,2013-01-10 01:52:00,
2013-01-09 19:55:00,43.9,32.5,30.17,East,92,4.0,6.0,64,0.00,,---,0.00,0.00,VWS V14.01,2013-01-10 01:55:00,
2013-01-09 19:57:00,43.8,32.4,30.17,East,90,5.0,6.0,64,0.00,,---,0.00,0.00,VWS V14.01,2013-01-10 01:57:00,
2013-01-09 20:00:00,43.8,32.4,30.17,East,85,5.0,6.0,64,0.00,,---,0.00,0.00,VWS V14.01,2013-01-10 02:00:00,
2013-01-09 20:02:00,43.6,32.2,30.17,East,89,5.0,6.0,64,0.00,,---,0.00,0.00,VWS V14.01,2013-01-10 02:02:00,
2013-01-09 20:05:00,43.5,32.2,30.17,East,88,5.0,6.0,64,0.00,,---,0.00,0.00,VWS V14.01,2013-01-10 02:05:00,
2013-01-09 20:07:00,43.3,32.0,30.17,East,88,5.0,6.0,64,0.00,,---,0.00,0.00,VWS V14.01,2013-01-10 02:07:00,
2013-01-09 20:10:00,43.2,31.9,30.17,East,88,5.0,6.0,64,0.00,,---,0.00,0.00,VWS V14.01,2013-01-10 02:10:00,
2013-01-09 20:12:00,43.1,32.2,30.17,East,93,5.0,6.0,65,0.00,,---,0.00,0.00,VWS V14.01,2013-01-10 02:12:00,
2013-01-09 20:15:00,42.9,32.0,30.17,East,95,5.0,6.0,65,0.00,,---,0.00,0.00,VWS V14.01,2013-01-10 02:15:00,
2013-01-09 20:18:00,42.8,31.9,30.17,East,89,6.0,7.0,65,0.00,,---,0.00,0.00,VWS V14.01,2013-01-10 02:18:00,
2013-01-09 20:20:00,42.6,31.7,30.17,East,93,6.0,7.0,65,0.00,,---,0.00,0.00,VWS V14.01,2013-01-10 02:20:00,
2013-01-09 20:23:00,42.5,32.0,30.17,East,88,5.0,7.0,66,0.00,,---,0.00,0.00,VWS V14.01,2013-01-10 02:23:00,
2013-01-09 20:25:00,42.5,32.0,30.17,East,88,6.0,7.0,66,0.00,,---,0.00,0.00,VWS V14.01,2013-01-10 02:25:00,
2013-01-09 20:28:00,42.5,32.0,30.17,East,85,6.0,7.0,66,0.00,,---,0.00,0.00,VWS V14.01,2013-01-10 02:28:00,
2013-01-09 20:30:00,42.3,31.8,30.16,East,90,6.0,7.0,66,0.00,,---,0.00,0.00,VWS V14.01,2013-01-10 02:30:00,
2013-01-09 20:33:00,42.3,31.8,30.16,East,89,6.0,6.0,66,0.00,,---,0.00,0.00,VWS V14.01,2013-01-10 02:33:00,
2013-01-09 20:35:00,42.3,31.8,30.16,East,89,6.0,7.0,66,0.00,,---,0.00,0.00,VWS V14.01,2013-01-10 02:35:00,
2013-01-09 20:38:00,42.3,31.8,30.16,East,89,6.0,7.0,66,0.00,,---,0.00,0.00,VWS V14.01,2013-01-10 02:38:00,
2013-01-09 20:40:00,42.3,31.8,30.16,East,89,6.0,7.0,66,0.00,,---,0.00,0.00,VWS V14.01,2013-01-10 02:40:00,
2013-01-09 20:43:00,42.1,32.0,30.17,East,96,6.0,7.0,67,0.00,,---,0.00,0.00,VWS V14.01,2013-01-10 02:43:00,
2013-01-09 20:45:00,41.9,31.8,30.17,East,92,7.0,7.0,67,0.00,,---,0.00,0.00,VWS V14.01,2013-01-10 02:45:00,
2013-01-09 20:48:00,41.5,31.7,30.17,East,97,7.0,8.0,68,0.00,,---,0.00,0.00,VWS V14.01,2013-01-10 02:48:00,
2013-01-09 20:50:00,41.3,31.5,30.17,East,92,7.0,8.0,68,0.00,,---,0.00,0.00,VWS V14.01,2013-01-10 02:50:00,
2013-01-09 20:53:00,41.2,31.8,30.17,East,96,5.0,8.0,69,0.00,,---,0.00,0.00,VWS V14.01,2013-01-10 02:53:00,
2013-01-09 20:55:00,41.2,31.8,30.17,East,86,7.0,8.0,69,0.00,,---,0.00,0.00,VWS V14.01,2013-01-10 02:55:00,
2013-01-09 20:58:00,41.2,31.8,30.18,East,96,7.0,7.0,69,0.00,,---,0.00,0.00,VWS V14.01,2013-01-10 02:58:00,
2013-01-09 21:00:00,41.2,31.8,30.18,East,99,8.0,8.0,69,0.00,,---,0.00,0.00,VWS V14.01,2013-01-10 03:00:00,
2013-01-09 21:03:00,41.3,31.5,30.18,East,90,7.0,8.0,68,0.00,,---,0.00,0.00,VWS V14.01,2013-01-10 03:03:00,
2013-01-09 21:05:00,41.5,31.7,30.18,East,92,8.0,8.0,68,0.00,,---,0.00,0.00,VWS V14.01,2013-01-10 03:05:00,
2013-01-09 21:09:00,41.5,31.7,30.18,East,89,7.0,8.0,68,0.00,,---,0.00,0.00,VWS V14.01,2013-01-10 03:09:00,
2013-01-09 21:10:00,41.5,31.7,30.18,East,97,6.0,8.0,68,0.00,,---,0.00,0.00,VWS V14.01,2013-01-10 03:10:00,
2013-01-09 21:14:00,41.3,31.5,30.17,East,89,6.0,8.0,68,0.00,,---,0.00,0.00,VWS V14.01,2013-01-10 03:14:00,
2013-01-09 21:15:00,41.3,31.5,30.17,East,93,7.0,8.0,68,0.00,,---,0.00,0.00,VWS V14.01,2013-01-10 03:15:00,
2013-01-09 21:19:00,41.2,31.5,30.17,East,92,7.0,8.0,68,0.00,,---,0.00,0.00,VWS V14.01,2013-01-10 03:19:00,
2013-01-09 21:20:00,41.2,31.5,30.17,East,93,7.0,8.0,68,0.00,,---,0.00,0.00,VWS V14.01,2013-01-10 03:20:00,
2013-01-09 21:24:00,40.9,31.5,30.17,ESE,103,5.0,7.0,69,0.00,,---,0.00,0.00,VWS V14.01,2013-01-10 03:24:00,
2013-01-09 21:25:00,40.9,31.5,30.17,East,99,6.0,7.0,69,0.00,,---,0.00,0.00,VWS V14.01,2013-01-10 03:25:00,
2013-01-09 21:29:00,40.5,31.1,30.17,East,95,6.0,7.0,69,0.00,,---,0.00,0.00,VWS V14.01,2013-01-10 03:29:00,
2013-01-09 21:30:00,40.5,31.1,30.17,East,99,5.0,7.0,69,0.00,,---,0.00,0.00,VWS V14.01,2013-01-10 03:30:00,
2013-01-09 21:34:00,40.1,31.1,30.17,East,99,7.0,7.0,70,0.00,,---,0.00,0.00,VWS V14.01,2013-01-10 03:34:00,
2013-01-09 21:35:00,40.1,31.1,30.17,East,96,6.0,7.0,70,0.00,,---,0.00,0.00,VWS V14.01,2013-01-10 03:35:00,
2013-01-09 21:39:00,40.2,31.2,30.17,East,86,7.0,7.0,70,0.00,,---,0.00,0.00,VWS V14.01,2013-01-10 03:39:00,
2013-01-09 21:40:00,40.2,31.2,30.17,East,86,7.0,7.0,70,0.00,,---,0.00,0.00,VWS V14.01,2013-01-10 03:40:00,
2013-01-09 21:44:00,40.3,31.3,30.16,East,86,6.0,7.0,70,0.00,,---,0.00,0.00,VWS V14.01,2013-01-10 03:44:00,
2013-01-09 21:45:00,40.3,31.3,30.16,East,86,6.0,7.0,70,0.00,,---,0.00,0.00,VWS V14.01,2013-01-10 03:45:00,
2013-01-09 21:49:00,40.3,31.3,30.16,East,86,7.0,7.0,70,0.00,,---,0.00,0.00,VWS V14.01,2013-01-10 03:49:00,
2013-01-09 21:50:00,40.3,31.3,30.16,East,86,7.0,7.0,70,0.00,,---,0.00,0.00,VWS V14.01,2013-01-10 03:50:00,
2013-01-09 21:54:00,40.2,30.9,30.16,East,88,6.0,6.0,69,0.00,,---,0.00,0.00,VWS V14.01,2013-01-10 03:54:00,
2013-01-09 21:55:00,40.2,30.9,30.16,East,92,6.0,7.0,69,0.00,,---,0.00,0.00,VWS V14.01,2013-01-10 03:55:00,
2013-01-09 21:59:00,39.9,30.9,30.16,East,85,6.0,7.0,70,0.00,,---,0.00,0.00,VWS V14.01,2013-01-10 03:59:00,
2013-01-09 22:00:00,39.9,30.9,30.16,East,82,6.0,7.0,70,0.00,,---,0.00,0.00,VWS V14.01,2013-01-10 04:00:00,
2013-01-09 22:04:00,39.6,31.0,30.16,East,82,6.0,7.0,71,0.00,,---,0.00,0.00,VWS V14.01,2013-01-10 04:04:00,
2013-01-09 22:05:00,39.6,31.0,30.16,East,88,5.0,8.0,71,0.00,,---,0.00,0.00,VWS V14.01,2013-01-10 04:05:00,
2013-01-09 22:10:00,39.5,30.9,30.16,East,82,7.0,7.0,71,0.00,,---,0.00,0.00,VWS V14.01,2013-01-10 04:10:00,
2013-01-09 22:15:00,39.2,31.0,30.14,East,83,8.0,10.0,72,0.00,,---,0.00,0.00,VWS V14.01,2013-01-10 04:15:00,
2013-01-09 22:20:00,39.5,30.9,30.14,East,100,8.0,8.0,71,0.00,,---,0.00,0.00,VWS V14.01,2013-01-10 04:20:00,
2013-01-09 22:25:00,39.3,30.7,30.14,East,99,9.0,9.0,71,0.00,,---,0.00,0.00,VWS V14.01,2013-01-10 04:25:00,
2013-01-09 22:30:00,38.9,30.7,30.14,ESE,119,9.0,10.0,72,0.00,,---,0.00,0.00,VWS V14.01,2013-01-10 04:30:00,
2013-01-09 22:35:00,38.8,30.6,30.14,ENE,76,6.0,8.0,72,0.00,,---,0.00,0.00,VWS V14.01,2013-01-10 04:35:00,
2013-01-09 22:40:00,38.5,30.6,30.14,East,86,7.0,7.0,73,0.00,,---,0.00,0.00,VWS V14.01,2013-01-10 04:40:00,
2013-01-09 22:45:00,38.5,30.6,30.13,East,88,8.0,8.0,73,0.00,,---,0.00,0.00,VWS V14.01,2013-01-10 04:45:00,
2013-01-09 22:50:00,38.3,30.4,30.13,ENE,73,7.0,8.0,73,0.00,,---,0.00,0.00,VWS V14.01,2013-01-10 04:50:00,
2013-01-09 22:55:00,38.2,30.7,30.13,ENE,72,8.0,8.0,74,0.00,,---,0.00,0.00,VWS V14.01,2013-01-10 04:55:00,
2013-01-09 23:00:00,38.3,30.8,30.13,East,83,8.0,8.0,74,0.00,,---,0.00,0.00,VWS V14.01,2013-01-10 05:00:00,
2013-01-09 23:03:00,38.6,31.0,30.13,ENE,59,7.0,8.0,74,0.00,,---,0.00,0.00,VWS V14.01,2013-01-10 05:03:00,
2013-01-09 23:05:00,38.8,30.9,30.13,East,100,7.0,8.0,73,0.00,,---,0.00,0.00,VWS V14.01,2013-01-10 05:05:00,
2013-01-09 23:10:00,39.2,31.3,30.13,ENE,76,6.0,7.0,73,0.00,,---,0.00,0.00,VWS V14.01,2013-01-10 05:10:00,
2013-01-09 23:15:00,39.1,31.2,30.11,East,83,6.0,7.0,73,0.00,,---,0.00,0.00,VWS V14.01,2013-01-10 05:15:00,
2013-01-09 23:20:00,38.9,31.0,30.11,East,89,7.0,8.0,73,0.00,,---,0.00,0.00,VWS V14.01,2013-01-10 05:20:00,
2013-01-09 23:25:00,39.1,31.2,30.11,SE,134,8.0,8.0,73,0.00,,---,0.00,0.00,VWS V14.01,2013-01-10 05:25:00,
2013-01-09 23:30:00,39.3,31.4,30.11,ESE,103,7.0,8.0,73,0.00,,---,0.00,0.00,VWS V14.01,2013-01-10 05:30:00,
2013-01-09 23:35:00,39.5,31.2,30.11,East,95,6.0,8.0,72,0.00,,---,0.00,0.00,VWS V14.01,2013-01-10 05:35:00,
2013-01-09 23:40:00,39.6,31.3,30.11,East,95,6.0,9.0,72,0.00,,---,0.00,0.00,VWS V14.01,2013-01-10 05:40:00,
2013-01-09 23:41:00,39.6,31.3,30.11,ENE,76,7.0,7.0,72,0.00,,---,0.00,0.00,VWS V14.01,2013-01-10 05:41:00,
2013-01-09 23:45:00,39.5,31.2,30.10,East,80,7.0,10.0,72,0.00,,---,0.00,0.00,VWS V14.01,2013-01-10 05:45:00,
2013-01-09 23:46:00,39.5,31.2,30.10,ENE,72,7.0,11.0,72,0.00,,---,0.00,0.00,VWS V14.01,2013-01-10 05:46:00,
2013-01-09 23:50:00,39.6,31.3,30.10,East,82,5.0,11.0,72,0.00,,---,0.00,0.00,VWS V14.01,2013-01-10 05:50:00,
2013-01-09 23:51:00,39.8,31.5,30.10,ENE,73,8.0,9.0,72,0.00,,---,0.00,0.00,VWS V14.01,2013-01-10 05:51:00,
2013-01-09 23:55:00,39.9,31.6,30.10,East,80,7.0,9.0,72,0.00,,---,0.00,0.00,VWS V14.01,2013-01-10 05:55:00,
2013-01-09 23:56:00,39.9,31.6,30.10,ENE,78,5.0,8.0,72,0.00,,---,0.00,0.00,VWS V14.01,2013-01-10 05:56:00,